sensor_id;sensor_type;location;lat;lon;timestamp;P1;durP1;ratioP1;P2;durP2;ratioP2
22363;SDS011;11349;53.412;-1.328;2023-06-24T00:02:10;4.85;;;3.40;;
22363;SDS011;11349;53.412;-1.328;2023-06-24T00:04:36;9.32;;;5.50;;
22363;SDS011;11349;53.412;-1.328;2023-06-24T00:07:02;8.90;;;5.78;;
22363;SDS011;11349;53.412;-1.328;2023-06-24T00:09:28;6.63;;;4.22;;
22363;SDS011;11349;53.412;-1.328;2023-06-24T00:11:55;5.93;;;3.40;;
22363;SDS011;11349;53.412;-1.328;2023-06-24T00:14:26;6.80;;;4.18;;
22363;SDS011;11349;53.412;-1.328;2023-06-24T00:16:53;5.03;;;2.58;;
22363;SDS011;11349;53.412;-1.328;2023-06-24T00:19:20;4.07;;;1.83;;
22363;SDS011;11349;53.412;-1.328;2023-06-24T00:21:48;3.28;;;1.50;;
22363;SDS011;11349;53.412;-1.328;2023-06-24T00:24:16;3.10;;;1.40;;
22363;SDS011;11349;53.412;-1.328;2023-06-24T00:26:44;3.13;;;1.60;;
22363;SDS011;11349;53.412;-1.328;2023-06-24T00:29:13;4.32;;;1.55;;
22363;SDS011;11349;53.412;-1.328;2023-06-24T00:31:38;3.08;;;1.40;;
22363;SDS011;11349;53.412;-1.328;2023-06-24T00:34:04;2.13;;;1.15;;
22363;SDS011;11349;53.412;-1.328;2023-06-24T00:36:30;3.28;;;1.67;;
22363;SDS011;11349;53.412;-1.328;2023-06-24T00:39:01;5.30;;;1.60;;
22363;SDS011;11349;53.412;-1.328;2023-06-24T00:41:28;3.03;;;1.30;;
22363;SDS011;11349;53.412;-1.328;2023-06-24T00:43:55;2.78;;;1.20;;
22363;SDS011;11349;53.412;-1.328;2023-06-24T00:46:22;2.85;;;1.20;;
22363;SDS011;11349;53.412;-1.328;2023-06-24T00:48:52;3.17;;;1.13;;
22363;SDS011;11349;53.412;-1.328;2023-06-24T00:51:18;2.95;;;1.50;;
22363;SDS011;11349;53.412;-1.328;2023-06-24T00:53:46;2.40;;;1.23;;
22363;SDS011;11349;53.412;-1.328;2023-06-24T00:56:13;2.35;;;1.10;;
22363;SDS011;11349;53.412;-1.328;2023-06-24T00:58:43;3.42;;;1.20;;
22363;SDS011;11349;53.412;-1.328;2023-06-24T01:01:09;3.45;;;1.50;;
22363;SDS011;11349;53.412;-1.328;2023-06-24T01:03:36;3.58;;;1.75;;
22363;SDS011;11349;53.412;-1.328;2023-06-24T01:06:03;4.78;;;1.80;;
22363;SDS011;11349;53.412;-1.328;2023-06-24T01:08:29;3.08;;;1.55;;
22363;SDS011;11349;53.412;-1.328;2023-06-24T01:10:55;1.88;;;0.98;;
22363;SDS011;11349;53.412;-1.328;2023-06-24T01:13:20;3.13;;;1.50;;
22363;SDS011;11349;53.412;-1.328;2023-06-24T01:15:47;3.47;;;1.30;;
22363;SDS011;11349;53.412;-1.328;2023-06-24T01:18:16;3.13;;;1.30;;
22363;SDS011;11349;53.412;-1.328;2023-06-24T01:20:47;3.20;;;1.13;;
22363;SDS011;11349;53.412;-1.328;2023-06-24T01:23:20;4.40;;;1.60;;
22363;SDS011;11349;53.412;-1.328;2023-06-24T01:32:01;2.38;;;1.20;;
22363;SDS011;11349;53.412;-1.328;2023-06-24T01:34:48;2.58;;;1.50;;
22363;SDS011;11349;53.412;-1.328;2023-06-24T01:37:25;1.98;;;1.05;;
22363;SDS011;11349;53.412;-1.328;2023-06-24T01:40:04;2.75;;;1.13;;
22363;SDS011;11349;53.412;-1.328;2023-06-24T01:42:36;3.60;;;1.35;;
22363;SDS011;11349;53.412;-1.328;2023-06-24T01:45:07;3.38;;;1.40;;
22363;SDS011;11349;53.412;-1.328;2023-06-24T01:47:37;2.05;;;1.10;;
22363;SDS011;11349;53.412;-1.328;2023-06-24T01:50:05;3.22;;;1.30;;
22363;SDS011;11349;53.412;-1.328;2023-06-24T01:52:34;2.83;;;1.20;;
22363;SDS011;11349;53.412;-1.328;2023-06-24T01:55:00;3.15;;;1.17;;
22363;SDS011;11349;53.412;-1.328;2023-06-24T01:57:29;2.22;;;1.25;;
22363;SDS011;11349;53.412;-1.328;2023-06-24T01:59:57;3.60;;;1.30;;
22363;SDS011;11349;53.412;-1.328;2023-06-24T02:02:26;4.70;;;1.42;;
22363;SDS011;11349;53.412;-1.328;2023-06-24T02:04:53;2.15;;;1.20;;
22363;SDS011;11349;53.412;-1.328;2023-06-24T02:07:21;3.53;;;1.42;;
22363;SDS011;11349;53.412;-1.328;2023-06-24T02:09:48;3.92;;;1.40;;
22363;SDS011;11349;53.412;-1.328;2023-06-24T02:12:16;3.60;;;1.55;;
22363;SDS011;11349;53.412;-1.328;2023-06-24T02:14:42;3.60;;;1.65;;
22363;SDS011;11349;53.412;-1.328;2023-06-24T02:17:09;3.88;;;1.23;;
22363;SDS011;11349;53.412;-1.328;2023-06-24T02:19:37;5.53;;;1.50;;
22363;SDS011;11349;53.412;-1.328;2023-06-24T02:22:04;3.95;;;1.45;;
22363;SDS011;11349;53.412;-1.328;2023-06-24T02:24:34;4.70;;;1.60;;
22363;SDS011;11349;53.412;-1.328;2023-06-24T02:27:02;3.45;;;1.50;;
22363;SDS011;11349;53.412;-1.328;2023-06-24T02:29:29;5.22;;;1.70;;
22363;SDS011;11349;53.412;-1.328;2023-06-24T02:31:57;3.55;;;1.55;;
22363;SDS011;11349;53.412;-1.328;2023-06-24T02:34:23;4.70;;;1.40;;
22363;SDS011;11349;53.412;-1.328;2023-06-24T02:36:49;2.70;;;1.20;;
22363;SDS011;11349;53.412;-1.328;2023-06-24T02:39:15;3.65;;;1.40;;
22363;SDS011;11349;53.412;-1.328;2023-06-24T02:41:41;3.72;;;1.85;;
22363;SDS011;11349;53.412;-1.328;2023-06-24T02:44:07;2.85;;;1.50;;
22363;SDS011;11349;53.412;-1.328;2023-06-24T02:46:33;3.72;;;1.40;;
22363;SDS011;11349;53.412;-1.328;2023-06-24T02:49:01;2.85;;;1.38;;
22363;SDS011;11349;53.412;-1.328;2023-06-24T02:51:28;3.25;;;1.27;;
22363;SDS011;11349;53.412;-1.328;2023-06-24T02:53:55;3.72;;;1.30;;
22363;SDS011;11349;53.412;-1.328;2023-06-24T02:56:23;4.18;;;1.10;;
22363;SDS011;11349;53.412;-1.328;2023-06-24T02:58:51;3.60;;;1.52;;
22363;SDS011;11349;53.412;-1.328;2023-06-24T03:01:18;2.65;;;1.38;;
22363;SDS011;11349;53.412;-1.328;2023-06-24T03:03:49;4.93;;;1.77;;
22363;SDS011;11349;53.412;-1.328;2023-06-24T03:06:19;9.68;;;2.17;;
22363;SDS011;11349;53.412;-1.328;2023-06-24T03:08:47;3.60;;;1.65;;
22363;SDS011;11349;53.412;-1.328;2023-06-24T03:11:16;3.80;;;1.63;;
22363;SDS011;11349;53.412;-1.328;2023-06-24T03:13:41;2.83;;;1.10;;
22363;SDS011;11349;53.412;-1.328;2023-06-24T03:16:08;4.50;;;1.70;;
22363;SDS011;11349;53.412;-1.328;2023-06-24T03:18:37;3.72;;;1.40;;
22363;SDS011;11349;53.412;-1.328;2023-06-24T03:21:05;2.60;;;1.40;;
22363;SDS011;11349;53.412;-1.328;2023-06-24T03:23:31;3.45;;;1.60;;
22363;SDS011;11349;53.412;-1.328;2023-06-24T03:25:57;4.47;;;1.98;;
22363;SDS011;11349;53.412;-1.328;2023-06-24T03:28:23;4.22;;;1.83;;
22363;SDS011;11349;53.412;-1.328;2023-06-24T03:30:48;4.25;;;1.80;;
22363;SDS011;11349;53.412;-1.328;2023-06-24T03:33:14;3.92;;;1.83;;
22363;SDS011;11349;53.412;-1.328;2023-06-24T03:35:42;3.13;;;1.48;;
22363;SDS011;11349;53.412;-1.328;2023-06-24T03:38:08;5.00;;;2.20;;
22363;SDS011;11349;53.412;-1.328;2023-06-24T03:40:34;4.47;;;1.95;;
22363;SDS011;11349;53.412;-1.328;2023-06-24T03:42:59;4.10;;;1.70;;
22363;SDS011;11349;53.412;-1.328;2023-06-24T03:45:25;6.13;;;2.17;;
22363;SDS011;11349;53.412;-1.328;2023-06-24T03:47:51;5.15;;;2.00;;
22363;SDS011;11349;53.412;-1.328;2023-06-24T03:50:16;4.50;;;1.73;;
22363;SDS011;11349;53.412;-1.328;2023-06-24T03:52:42;5.47;;;2.10;;
22363;SDS011;11349;53.412;-1.328;2023-06-24T03:55:09;3.88;;;1.92;;
22363;SDS011;11349;53.412;-1.328;2023-06-24T03:57:36;5.88;;;1.80;;
22363;SDS011;11349;53.412;-1.328;2023-06-24T04:00:02;3.50;;;2.00;;
22363;SDS011;11349;53.412;-1.328;2023-06-24T04:02:40;5.35;;;2.40;;
22363;SDS011;11349;53.412;-1.328;2023-06-24T04:05:07;6.65;;;2.25;;
22363;SDS011;11349;53.412;-1.328;2023-06-24T04:07:33;4.43;;;2.15;;
22363;SDS011;11349;53.412;-1.328;2023-06-24T04:10:01;4.88;;;1.70;;
22363;SDS011;11349;53.412;-1.328;2023-06-24T04:12:29;3.95;;;2.00;;
22363;SDS011;11349;53.412;-1.328;2023-06-24T04:14:54;5.57;;;2.25;;
22363;SDS011;11349;53.412;-1.328;2023-06-24T04:17:20;4.20;;;2.00;;
22363;SDS011;11349;53.412;-1.328;2023-06-24T04:19:46;4.38;;;2.10;;
22363;SDS011;11349;53.412;-1.328;2023-06-24T04:22:12;3.22;;;2.00;;
22363;SDS011;11349;53.412;-1.328;2023-06-24T04:24:37;3.67;;;2.08;;
22363;SDS011;11349;53.412;-1.328;2023-06-24T04:27:03;3.78;;;2.30;;
22363;SDS011;11349;53.412;-1.328;2023-06-24T04:29:30;6.72;;;2.28;;
22363;SDS011;11349;53.412;-1.328;2023-06-24T04:31:56;4.63;;;2.28;;
22363;SDS011;11349;53.412;-1.328;2023-06-24T04:34:22;5.35;;;2.42;;
22363;SDS011;11349;53.412;-1.328;2023-06-24T04:36:48;3.78;;;2.50;;
22363;SDS011;11349;53.412;-1.328;2023-06-24T04:39:14;3.17;;;1.85;;
22363;SDS011;11349;53.412;-1.328;2023-06-24T04:41:39;4.03;;;1.77;;
22363;SDS011;11349;53.412;-1.328;2023-06-24T04:44:05;4.78;;;2.00;;
22363;SDS011;11349;53.412;-1.328;2023-06-24T04:46:30;6.25;;;2.22;;
22363;SDS011;11349;53.412;-1.328;2023-06-24T04:48:57;5.78;;;2.17;;
22363;SDS011;11349;53.412;-1.328;2023-06-24T04:51:23;3.92;;;2.28;;
22363;SDS011;11349;53.412;-1.328;2023-06-24T04:53:49;4.60;;;2.13;;
22363;SDS011;11349;53.412;-1.328;2023-06-24T04:56:15;4.47;;;2.20;;
22363;SDS011;11349;53.412;-1.328;2023-06-24T04:58:40;2.83;;;1.50;;
22363;SDS011;11349;53.412;-1.328;2023-06-24T05:01:06;4.97;;;2.17;;
22363;SDS011;11349;53.412;-1.328;2023-06-24T05:03:32;5.90;;;2.15;;
22363;SDS011;11349;53.412;-1.328;2023-06-24T05:05:57;5.13;;;2.55;;
22363;SDS011;11349;53.412;-1.328;2023-06-24T05:08:23;4.03;;;2.05;;
22363;SDS011;11349;53.412;-1.328;2023-06-24T05:10:49;4.78;;;2.22;;
22363;SDS011;11349;53.412;-1.328;2023-06-24T05:13:15;4.05;;;1.98;;
22363;SDS011;11349;53.412;-1.328;2023-06-24T05:15:41;4.90;;;2.30;;
22363;SDS011;11349;53.412;-1.328;2023-06-24T05:18:06;5.47;;;2.45;;
22363;SDS011;11349;53.412;-1.328;2023-06-24T05:20:32;3.67;;;2.13;;
22363;SDS011;11349;53.412;-1.328;2023-06-24T05:22:58;3.30;;;1.98;;
22363;SDS011;11349;53.412;-1.328;2023-06-24T05:25:23;5.32;;;1.70;;
22363;SDS011;11349;53.412;-1.328;2023-06-24T05:27:49;3.42;;;2.20;;
22363;SDS011;11349;53.412;-1.328;2023-06-24T05:30:15;3.88;;;1.88;;
22363;SDS011;11349;53.412;-1.328;2023-06-24T05:32:40;3.20;;;1.80;;
22363;SDS011;11349;53.412;-1.328;2023-06-24T05:35:06;4.32;;;2.00;;
22363;SDS011;11349;53.412;-1.328;2023-06-24T05:37:32;4.80;;;2.20;;
22363;SDS011;11349;53.412;-1.328;2023-06-24T05:39:58;3.88;;;1.95;;
22363;SDS011;11349;53.412;-1.328;2023-06-24T05:42:26;3.83;;;1.95;;
22363;SDS011;11349;53.412;-1.328;2023-06-24T05:44:52;5.07;;;2.25;;
22363;SDS011;11349;53.412;-1.328;2023-06-24T05:47:18;3.83;;;1.98;;
22363;SDS011;11349;53.412;-1.328;2023-06-24T05:49:44;4.93;;;2.13;;
22363;SDS011;11349;53.412;-1.328;2023-06-24T05:52:11;4.57;;;1.88;;
22363;SDS011;11349;53.412;-1.328;2023-06-24T05:54:37;4.50;;;2.20;;
22363;SDS011;11349;53.412;-1.328;2023-06-24T05:57:03;3.53;;;1.92;;
22363;SDS011;11349;53.412;-1.328;2023-06-24T05:59:31;4.35;;;1.92;;
22363;SDS011;11349;53.412;-1.328;2023-06-24T06:01:57;3.92;;;1.92;;
22363;SDS011;11349;53.412;-1.328;2023-06-24T06:04:23;4.38;;;1.80;;
22363;SDS011;11349;53.412;-1.328;2023-06-24T06:06:48;5.22;;;2.03;;
22363;SDS011;11349;53.412;-1.328;2023-06-24T06:09:14;4.45;;;1.88;;
22363;SDS011;11349;53.412;-1.328;2023-06-24T06:11:40;4.75;;;2.17;;
22363;SDS011;11349;53.412;-1.328;2023-06-24T06:14:06;5.22;;;2.30;;
22363;SDS011;11349;53.412;-1.328;2023-06-24T06:16:32;3.35;;;1.88;;
22363;SDS011;11349;53.412;-1.328;2023-06-24T06:18:58;4.35;;;2.17;;
22363;SDS011;11349;53.412;-1.328;2023-06-24T06:21:24;5.82;;;3.25;;
22363;SDS011;11349;53.412;-1.328;2023-06-24T06:23:49;4.97;;;2.53;;
22363;SDS011;11349;53.412;-1.328;2023-06-24T06:26:15;5.70;;;2.53;;
22363;SDS011;11349;53.412;-1.328;2023-06-24T06:28:41;4.53;;;2.17;;
22363;SDS011;11349;53.412;-1.328;2023-06-24T06:31:07;4.57;;;2.45;;
22363;SDS011;11349;53.412;-1.328;2023-06-24T06:33:33;4.13;;;2.17;;
22363;SDS011;11349;53.412;-1.328;2023-06-24T06:35:59;6.05;;;2.00;;
22363;SDS011;11349;53.412;-1.328;2023-06-24T06:38:24;5.63;;;2.50;;
22363;SDS011;11349;53.412;-1.328;2023-06-24T06:40:50;5.60;;;3.10;;
22363;SDS011;11349;53.412;-1.328;2023-06-24T06:43:16;5.40;;;2.50;;
22363;SDS011;11349;53.412;-1.328;2023-06-24T06:45:41;3.78;;;2.40;;
22363;SDS011;11349;53.412;-1.328;2023-06-24T06:48:07;3.85;;;2.00;;
22363;SDS011;11349;53.412;-1.328;2023-06-24T06:50:33;4.05;;;2.05;;
22363;SDS011;11349;53.412;-1.328;2023-06-24T06:53:00;4.30;;;2.40;;
22363;SDS011;11349;53.412;-1.328;2023-06-24T06:55:26;3.72;;;2.38;;
22363;SDS011;11349;53.412;-1.328;2023-06-24T06:57:52;5.20;;;2.65;;
22363;SDS011;11349;53.412;-1.328;2023-06-24T07:00:18;5.03;;;2.47;;
22363;SDS011;11349;53.412;-1.328;2023-06-24T07:02:44;4.57;;;2.20;;
22363;SDS011;11349;53.412;-1.328;2023-06-24T07:05:10;4.97;;;2.50;;
22363;SDS011;11349;53.412;-1.328;2023-06-24T07:07:37;4.40;;;2.53;;
22363;SDS011;11349;53.412;-1.328;2023-06-24T07:10:03;3.95;;;2.13;;
22363;SDS011;11349;53.412;-1.328;2023-06-24T07:12:29;7.32;;;2.22;;
22363;SDS011;11349;53.412;-1.328;2023-06-24T07:14:56;5.00;;;2.63;;
22363;SDS011;11349;53.412;-1.328;2023-06-24T07:17:21;5.82;;;2.30;;
22363;SDS011;11349;53.412;-1.328;2023-06-24T07:19:47;3.88;;;2.17;;
22363;SDS011;11349;53.412;-1.328;2023-06-24T07:22:16;3.10;;;1.85;;
22363;SDS011;11349;53.412;-1.328;2023-06-24T07:24:42;4.32;;;2.08;;
22363;SDS011;11349;53.412;-1.328;2023-06-24T07:27:07;3.17;;;2.00;;
22363;SDS011;11349;53.412;-1.328;2023-06-24T07:29:33;4.85;;;2.10;;
22363;SDS011;11349;53.412;-1.328;2023-06-24T07:31:59;5.65;;;2.72;;
22363;SDS011;11349;53.412;-1.328;2023-06-24T07:34:24;5.82;;;2.70;;
22363;SDS011;11349;53.412;-1.328;2023-06-24T07:36:50;5.40;;;2.10;;
22363;SDS011;11349;53.412;-1.328;2023-06-24T07:39:16;5.22;;;2.17;;
22363;SDS011;11349;53.412;-1.328;2023-06-24T07:41:42;4.68;;;2.15;;
22363;SDS011;11349;53.412;-1.328;2023-06-24T07:44:08;5.63;;;2.20;;
22363;SDS011;11349;53.412;-1.328;2023-06-24T07:46:34;5.85;;;2.90;;
22363;SDS011;11349;53.412;-1.328;2023-06-24T07:49:00;4.57;;;2.10;;
22363;SDS011;11349;53.412;-1.328;2023-06-24T07:51:26;3.92;;;2.00;;
22363;SDS011;11349;53.412;-1.328;2023-06-24T07:53:52;3.13;;;1.98;;
22363;SDS011;11349;53.412;-1.328;2023-06-24T07:56:18;4.20;;;2.53;;
22363;SDS011;11349;53.412;-1.328;2023-06-24T07:58:43;5.13;;;2.03;;
22363;SDS011;11349;53.412;-1.328;2023-06-24T08:01:09;5.43;;;2.13;;
22363;SDS011;11349;53.412;-1.328;2023-06-24T08:03:35;4.07;;;2.22;;
22363;SDS011;11349;53.412;-1.328;2023-06-24T08:06:04;2.58;;;1.60;;
22363;SDS011;11349;53.412;-1.328;2023-06-24T08:08:29;3.28;;;1.92;;
22363;SDS011;11349;53.412;-1.328;2023-06-24T08:10:55;4.60;;;1.83;;
22363;SDS011;11349;53.412;-1.328;2023-06-24T08:13:21;3.50;;;1.80;;
22363;SDS011;11349;53.412;-1.328;2023-06-24T08:15:46;4.65;;;2.10;;
22363;SDS011;11349;53.412;-1.328;2023-06-24T08:18:12;3.08;;;1.80;;
22363;SDS011;11349;53.412;-1.328;2023-06-24T08:20:38;4.22;;;2.00;;
22363;SDS011;11349;53.412;-1.328;2023-06-24T08:23:04;3.28;;;1.60;;
22363;SDS011;11349;53.412;-1.328;2023-06-24T08:25:29;3.58;;;1.90;;
22363;SDS011;11349;53.412;-1.328;2023-06-24T08:27:55;3.63;;;2.08;;
22363;SDS011;11349;53.412;-1.328;2023-06-24T08:30:21;3.28;;;1.60;;
22363;SDS011;11349;53.412;-1.328;2023-06-24T08:32:47;2.58;;;1.48;;
22363;SDS011;11349;53.412;-1.328;2023-06-24T08:35:13;3.03;;;1.42;;
22363;SDS011;11349;53.412;-1.328;2023-06-24T08:37:39;3.60;;;1.67;;
22363;SDS011;11349;53.412;-1.328;2023-06-24T08:40:05;2.50;;;1.40;;
22363;SDS011;11349;53.412;-1.328;2023-06-24T08:42:31;3.72;;;1.70;;
22363;SDS011;11349;53.412;-1.328;2023-06-24T08:44:57;3.20;;;2.00;;
22363;SDS011;11349;53.412;-1.328;2023-06-24T08:47:26;3.83;;;1.60;;
22363;SDS011;11349;53.412;-1.328;2023-06-24T08:49:55;2.63;;;1.60;;
22363;SDS011;11349;53.412;-1.328;2023-06-24T08:52:29;3.38;;;1.67;;
22363;SDS011;11349;53.412;-1.328;2023-06-24T08:54:57;3.53;;;1.60;;
22363;SDS011;11349;53.412;-1.328;2023-06-24T08:57:24;6.32;;;2.00;;
22363;SDS011;11349;53.412;-1.328;2023-06-24T08:59:50;4.00;;;1.95;;
22363;SDS011;11349;53.412;-1.328;2023-06-24T09:02:15;3.30;;;1.40;;
22363;SDS011;11349;53.412;-1.328;2023-06-24T09:04:41;3.50;;;1.63;;
22363;SDS011;11349;53.412;-1.328;2023-06-24T09:07:07;4.85;;;1.83;;
22363;SDS011;11349;53.412;-1.328;2023-06-24T09:09:33;3.42;;;1.58;;
22363;SDS011;11349;53.412;-1.328;2023-06-24T09:12:09;2.53;;;1.52;;
22363;SDS011;11349;53.412;-1.328;2023-06-24T09:14:36;3.97;;;1.88;;
22363;SDS011;11349;53.412;-1.328;2023-06-24T09:17:02;3.22;;;1.70;;
22363;SDS011;11349;53.412;-1.328;2023-06-24T09:19:31;3.40;;;1.30;;
22363;SDS011;11349;53.412;-1.328;2023-06-24T09:22:05;3.17;;;1.60;;
22363;SDS011;11349;53.412;-1.328;2023-06-24T09:24:31;2.92;;;1.60;;
22363;SDS011;11349;53.412;-1.328;2023-06-24T09:26:58;4.18;;;1.73;;
22363;SDS011;11349;53.412;-1.328;2023-06-24T09:29:27;3.25;;;1.83;;
22363;SDS011;11349;53.412;-1.328;2023-06-24T09:31:56;3.20;;;1.80;;
22363;SDS011;11349;53.412;-1.328;2023-06-24T09:34:24;2.70;;;1.60;;
22363;SDS011;11349;53.412;-1.328;2023-06-24T09:36:52;5.22;;;2.03;;
22363;SDS011;11349;53.412;-1.328;2023-06-24T09:39:18;3.00;;;1.85;;
22363;SDS011;11349;53.412;-1.328;2023-06-24T09:41:49;2.95;;;1.75;;
22363;SDS011;11349;53.412;-1.328;2023-06-24T09:44:16;3.25;;;1.70;;
22363;SDS011;11349;53.412;-1.328;2023-06-24T09:46:44;4.38;;;2.22;;
22363;SDS011;11349;53.412;-1.328;2023-06-24T09:49:10;2.80;;;1.55;;
22363;SDS011;11349;53.412;-1.328;2023-06-24T09:51:39;2.58;;;1.55;;
22363;SDS011;11349;53.412;-1.328;2023-06-24T09:54:11;5.07;;;1.75;;
22363;SDS011;11349;53.412;-1.328;2023-06-24T09:56:50;2.78;;;1.63;;
22363;SDS011;11349;53.412;-1.328;2023-06-24T09:59:18;3.67;;;1.52;;
22363;SDS011;11349;53.412;-1.328;2023-06-24T10:01:45;3.50;;;1.90;;
22363;SDS011;11349;53.412;-1.328;2023-06-24T10:04:13;2.97;;;1.63;;
22363;SDS011;11349;53.412;-1.328;2023-06-24T10:06:41;3.15;;;1.60;;
22363;SDS011;11349;53.412;-1.328;2023-06-24T10:09:07;2.33;;;1.45;;
22363;SDS011;11349;53.412;-1.328;2023-06-24T10:11:33;2.33;;;1.55;;
22363;SDS011;11349;53.412;-1.328;2023-06-24T10:13:59;3.72;;;1.60;;
22363;SDS011;11349;53.412;-1.328;2023-06-24T10:16:26;3.10;;;1.25;;
22363;SDS011;11349;53.412;-1.328;2023-06-24T10:18:52;3.22;;;1.60;;
22363;SDS011;11349;53.412;-1.328;2023-06-24T10:21:25;3.67;;;1.42;;
22363;SDS011;11349;53.412;-1.328;2023-06-24T10:27:13;2.53;;;1.45;;
22363;SDS011;11349;53.412;-1.328;2023-06-24T10:29:44;3.13;;;1.27;;
22363;SDS011;11349;53.412;-1.328;2023-06-24T10:32:11;2.40;;;1.35;;
22363;SDS011;11349;53.412;-1.328;2023-06-24T10:39:53;3.35;;;1.73;;
22363;SDS011;11349;53.412;-1.328;2023-06-24T10:45:19;2.75;;;1.60;;
22363;SDS011;11349;53.412;-1.328;2023-06-24T10:47:46;3.22;;;1.40;;
22363;SDS011;11349;53.412;-1.328;2023-06-24T10:50:14;3.85;;;1.42;;
22363;SDS011;11349;53.412;-1.328;2023-06-24T10:52:50;3.35;;;1.65;;
22363;SDS011;11349;53.412;-1.328;2023-06-24T10:55:23;2.47;;;1.42;;
22363;SDS011;11349;53.412;-1.328;2023-06-24T10:57:52;3.10;;;1.60;;
22363;SDS011;11349;53.412;-1.328;2023-06-24T11:00:18;2.95;;;1.42;;
22363;SDS011;11349;53.412;-1.328;2023-06-24T11:02:45;5.07;;;1.38;;
22363;SDS011;11349;53.412;-1.328;2023-06-24T11:05:11;3.22;;;1.55;;
22363;SDS011;11349;53.412;-1.328;2023-06-24T11:07:37;3.42;;;1.63;;
22363;SDS011;11349;53.412;-1.328;2023-06-24T11:10:07;3.33;;;1.48;;
22363;SDS011;11349;53.412;-1.328;2023-06-24T11:12:36;2.72;;;1.40;;
22363;SDS011;11349;53.412;-1.328;2023-06-24T11:15:04;2.65;;;1.40;;
22363;SDS011;11349;53.412;-1.328;2023-06-24T11:17:34;3.53;;;1.60;;
22363;SDS011;11349;53.412;-1.328;2023-06-24T11:20:01;4.80;;;1.90;;
22363;SDS011;11349;53.412;-1.328;2023-06-24T11:22:31;3.38;;;1.75;;
22363;SDS011;11349;53.412;-1.328;2023-06-24T11:24:57;2.50;;;1.70;;
22363;SDS011;11349;53.412;-1.328;2023-06-24T11:27:29;4.20;;;1.55;;
22363;SDS011;11349;53.412;-1.328;2023-06-24T11:29:57;3.03;;;1.38;;
22363;SDS011;11349;53.412;-1.328;2023-06-24T11:32:39;2.78;;;1.23;;
22363;SDS011;11349;53.412;-1.328;2023-06-24T11:35:07;2.28;;;1.30;;
22363;SDS011;11349;53.412;-1.328;2023-06-24T11:37:34;3.67;;;1.75;;
22363;SDS011;11349;53.412;-1.328;2023-06-24T11:40:03;2.85;;;1.20;;
22363;SDS011;11349;53.412;-1.328;2023-06-24T11:42:30;2.55;;;1.15;;
22363;SDS011;11349;53.412;-1.328;2023-06-24T11:45:00;2.22;;;1.30;;
22363;SDS011;11349;53.412;-1.328;2023-06-24T11:47:31;1.67;;;1.08;;
22363;SDS011;11349;53.412;-1.328;2023-06-24T11:49:58;1.92;;;1.10;;
22363;SDS011;11349;53.412;-1.328;2023-06-24T11:55:10;1.75;;;1.05;;
22363;SDS011;11349;53.412;-1.328;2023-06-24T12:00:30;2.35;;;1.02;;
22363;SDS011;11349;53.412;-1.328;2023-06-24T12:02:57;2.13;;;1.05;;
22363;SDS011;11349;53.412;-1.328;2023-06-24T12:05:26;1.90;;;0.95;;
22363;SDS011;11349;53.412;-1.328;2023-06-24T12:08:11;3.80;;;1.00;;
22363;SDS011;11349;53.412;-1.328;2023-06-24T12:10:40;2.17;;;1.00;;
22363;SDS011;11349;53.412;-1.328;2023-06-24T12:13:06;3.63;;;1.20;;
22363;SDS011;11349;53.412;-1.328;2023-06-24T12:15:33;2.00;;;1.00;;
22363;SDS011;11349;53.412;-1.328;2023-06-24T12:17:59;1.77;;;1.05;;
22363;SDS011;11349;53.412;-1.328;2023-06-24T12:20:27;3.20;;;1.10;;
22363;SDS011;11349;53.412;-1.328;2023-06-24T12:22:53;1.75;;;1.00;;
22363;SDS011;11349;53.412;-1.328;2023-06-24T12:25:20;2.40;;;1.33;;
22363;SDS011;11349;53.412;-1.328;2023-06-24T12:27:46;2.58;;;1.10;;
22363;SDS011;11349;53.412;-1.328;2023-06-24T12:30:12;2.72;;;1.13;;
22363;SDS011;11349;53.412;-1.328;2023-06-24T12:32:38;3.30;;;1.38;;
22363;SDS011;11349;53.412;-1.328;2023-06-24T12:35:05;2.20;;;1.15;;
22363;SDS011;11349;53.412;-1.328;2023-06-24T12:37:33;2.20;;;1.02;;
22363;SDS011;11349;53.412;-1.328;2023-06-24T12:40:00;2.45;;;1.13;;
22363;SDS011;11349;53.412;-1.328;2023-06-24T12:42:26;2.40;;;0.90;;
22363;SDS011;11349;53.412;-1.328;2023-06-24T12:44:52;2.33;;;1.17;;
22363;SDS011;11349;53.412;-1.328;2023-06-24T12:47:18;4.15;;;1.17;;
22363;SDS011;11349;53.412;-1.328;2023-06-24T12:49:44;2.42;;;0.98;;
22363;SDS011;11349;53.412;-1.328;2023-06-24T12:52:12;1.90;;;0.80;;
22363;SDS011;11349;53.412;-1.328;2023-06-24T12:54:38;3.97;;;0.98;;
22363;SDS011;11349;53.412;-1.328;2023-06-24T12:57:04;2.95;;;0.95;;
22363;SDS011;11349;53.412;-1.328;2023-06-24T12:59:30;1.45;;;0.90;;
22363;SDS011;11349;53.412;-1.328;2023-06-24T13:01:55;2.13;;;0.80;;
22363;SDS011;11349;53.412;-1.328;2023-06-24T13:04:21;2.67;;;0.90;;
22363;SDS011;11349;53.412;-1.328;2023-06-24T13:06:49;1.40;;;0.75;;
22363;SDS011;11349;53.412;-1.328;2023-06-24T13:09:16;1.77;;;0.90;;
22363;SDS011;11349;53.412;-1.328;2023-06-24T13:11:41;6.20;;;1.30;;
22363;SDS011;11349;53.412;-1.328;2023-06-24T13:14:07;4.32;;;0.80;;
22363;SDS011;11349;53.412;-1.328;2023-06-24T13:16:35;2.60;;;1.05;;
22363;SDS011;11349;53.412;-1.328;2023-06-24T13:19:02;2.05;;;0.90;;
22363;SDS011;11349;53.412;-1.328;2023-06-24T13:21:28;3.88;;;1.17;;
22363;SDS011;11349;53.412;-1.328;2023-06-24T13:23:53;4.47;;;1.25;;
22363;SDS011;11349;53.412;-1.328;2023-06-24T13:26:19;2.42;;;1.00;;
22363;SDS011;11349;53.412;-1.328;2023-06-24T13:28:45;1.50;;;0.90;;
22363;SDS011;11349;53.412;-1.328;2023-06-24T13:31:10;3.05;;;0.90;;
22363;SDS011;11349;53.412;-1.328;2023-06-24T13:33:36;1.90;;;0.90;;
22363;SDS011;11349;53.412;-1.328;2023-06-24T13:36:02;1.90;;;0.95;;
22363;SDS011;11349;53.412;-1.328;2023-06-24T13:38:30;1.95;;;0.80;;
22363;SDS011;11349;53.412;-1.328;2023-06-24T13:40:56;2.17;;;1.13;;
22363;SDS011;11349;53.412;-1.328;2023-06-24T13:43:21;3.70;;;0.98;;
22363;SDS011;11349;53.412;-1.328;2023-06-24T13:45:47;2.03;;;1.08;;
22363;SDS011;11349;53.412;-1.328;2023-06-24T13:48:13;2.28;;;0.98;;
22363;SDS011;11349;53.412;-1.328;2023-06-24T13:50:39;1.75;;;0.85;;
22363;SDS011;11349;53.412;-1.328;2023-06-24T13:53:04;2.45;;;0.90;;
22363;SDS011;11349;53.412;-1.328;2023-06-24T13:55:30;2.03;;;1.00;;
22363;SDS011;11349;53.412;-1.328;2023-06-24T13:57:56;2.30;;;1.08;;
22363;SDS011;11349;53.412;-1.328;2023-06-24T14:00:22;3.88;;;1.25;;
22363;SDS011;11349;53.412;-1.328;2023-06-24T14:02:48;3.35;;;1.30;;
22363;SDS011;11349;53.412;-1.328;2023-06-24T14:05:13;2.47;;;1.10;;
22363;SDS011;11349;53.412;-1.328;2023-06-24T14:07:39;2.33;;;0.90;;
22363;SDS011;11349;53.412;-1.328;2023-06-24T14:10:05;1.77;;;1.05;;
22363;SDS011;11349;53.412;-1.328;2023-06-24T14:12:31;4.60;;;1.42;;
22363;SDS011;11349;53.412;-1.328;2023-06-24T14:14:57;1.88;;;0.95;;
22363;SDS011;11349;53.412;-1.328;2023-06-24T14:17:23;2.67;;;0.88;;
22363;SDS011;11349;53.412;-1.328;2023-06-24T14:19:49;3.08;;;1.13;;
22363;SDS011;11349;53.412;-1.328;2023-06-24T14:22:15;3.47;;;1.48;;
22363;SDS011;11349;53.412;-1.328;2023-06-24T14:24:42;4.63;;;2.03;;
22363;SDS011;11349;53.412;-1.328;2023-06-24T14:27:08;4.70;;;1.45;;
22363;SDS011;11349;53.412;-1.328;2023-06-24T14:29:34;4.05;;;1.40;;
22363;SDS011;11349;53.412;-1.328;2023-06-24T14:32:00;2.50;;;1.30;;
22363;SDS011;11349;53.412;-1.328;2023-06-24T14:34:26;3.42;;;1.40;;
22363;SDS011;11349;53.412;-1.328;2023-06-24T14:36:54;2.28;;;1.02;;
22363;SDS011;11349;53.412;-1.328;2023-06-24T14:39:20;3.03;;;1.20;;
22363;SDS011;11349;53.412;-1.328;2023-06-24T14:41:46;3.70;;;1.20;;
22363;SDS011;11349;53.412;-1.328;2023-06-24T14:44:12;2.78;;;1.40;;
22363;SDS011;11349;53.412;-1.328;2023-06-24T14:46:38;2.50;;;1.08;;
22363;SDS011;11349;53.412;-1.328;2023-06-24T14:49:03;4.30;;;1.83;;
22363;SDS011;11349;53.412;-1.328;2023-06-24T14:51:29;2.63;;;1.20;;
22363;SDS011;11349;53.412;-1.328;2023-06-24T14:53:55;2.28;;;1.15;;
22363;SDS011;11349;53.412;-1.328;2023-06-24T14:56:20;3.58;;;1.40;;